الصفحة الرئيسية
METAR-TAF:

METAR-TAF

مطار :

Cooma, أستراليا

دائرة عرض: 36-18-00S, خط طول: 148-58-24E, ارتفاع: 947 متر

مراقبة الطقس الحالي

تاريخ ووقت الإصدار 28 دقيقة قبل الساعة 23:00UTC
ريح 10 عقدة من الغرب/الشمال الغربي
درجة الحرارة 9°درجة مئوية
الرطوبة 57%
ضغط 1013 hPa
الرؤية 10 كم أو أكثر

METAR: YCOM 252300Z AUTO 30010KT 9999 // NCD 09/01 Q1013

زمن: 09:28 (23:28 UTC)


TAF: مفقودة

أرصاد الطقس والتوقعات من أكثر من 4000 مطار (تقارير الطقس للمطار METAR والتنبؤ بالطقس بالمطارTAF).

المحطات المتاحة هي النقط الصفراء والحمراء على الخريطة.

حرك المؤشر فوق النقطة لمعرفة اسم المحطة.

ثم انقر لمعرفة أرصاد وتوقعات الطقس.

لتغيير الخارطة: اضغط على الأزرار الخضراء مع رمز الصليب الأسود للتكبير. على الزر الأخضر مع شرطة للتصغير، أو على الأسهم الخضراء للخرائط المجاورة.


METAR-TAF: